Flight Track Log - Related Links

Times and Time Zones

All times are in EST time to prevent confusion due to time zone crossing. See the UPS1191 flight status page for this flight to view local times or setup timezone preferences in your user account.

Time Position Orientation Groundspeed Altitude Reporting Facility
EST Latitude Longitude Course Direction KTS MPH feet Rate Location/Type
Thu 10:38:16 PM 39.8577 -75.2773 241° Southwest 146 168 1,300  Level FlightAware ADS-B (KWWD)
Thu 10:38:36 PM 39.8493 -75.2942 237° Southwest 180 207 1,500 1,385 Climbing FlightAware ADS-B (KWWD)
Thu 10:38:55 PM 39.8399 -75.3130 237° Southwest 196 226 2,200 3,000 Climbing FlightAware ADS-B (KWWD)
Thu 10:39:16 PM 39.8299 -75.3358 240° Southwest 202 232 3,500 3,455 Climbing FlightAware ADS-B (KWWD)
Thu 10:39:28 PM 39.8285 -75.3489 262° West 198 228 4,100 3,300 Climbing FlightAware ADS-B
Thu 10:39:36 PM 39.8306 -75.3593 285° West 201 231 4,600 3,000 Climbing FlightAware ADS-B (KWWD)
Thu 10:39:46 PM 39.8362 -75.3696 305° West 215 247 5,000 2,571 Climbing FlightAware ADS-B
Thu 10:39:57 PM 39.8445 -75.3789 319° Northwest 221 254 5,500 3,200 Climbing FlightAware ADS-B (KWWD)
Thu 10:40:16 PM 39.8626 -75.3926 330° Northwest 231 266 6,600 4,054 Climbing FlightAware ADS-B (KWWD)
Thu 10:40:34 PM 39.8885 -75.4047 340° North 248 285 8,000 3,450 Climbing FlightAware ADS-B
Thu 10:40:56 PM 39.8973 -75.4086 341° North 251 289 8,900 3,000 Climbing FlightAware ADS-B
Thu 10:41:12 PM 39.9160 -75.4169 341° North 260 299 9,900 1,967 Climbing FlightAware ADS-B
Thu 10:41:57 PM 39.9801 -75.4472 340° North 310 357 10,900 1,317 Climbing FlightAware ADS-B (KWWD)
Thu 10:42:34 PM 40.0373 -75.4740 340° North 359 413 11,700 1,275 Climbing FlightAware ADS-B (KWWD)
Thu 10:43:17 PM 40.1081 -75.5070 340° North 376 433 12,600 1,481 Climbing FlightAware ADS-B (KWWD)
Thu 10:43:51 PM 40.1650 -75.5335 340° North 390 449 13,600 2,239 Climbing FlightAware ADS-B
Thu 10:44:24 PM 40.2194 -75.5652 336° Northwest 377 434 15,100 2,118 Climbing FlightAware ADS-B (KWWD)
Thu 10:45:16 PM 40.2822 -75.6498 314° West 377 434 16,600 1,343 Climbing FlightAware ADS-B (KWWD)
Thu 10:45:31 PM 40.3004 -75.6776 311° West 376 433 16,600 103 Level FlightAware ADS-B (KWWD)
Thu 10:46:14 PM 40.3499 -75.7527 311° West 375 432 16,700 71 Climbing FlightAware ADS-B (KWWD)
Thu 10:46:55 PM 40.3984 -75.8260 311° West 376 433 16,700 795 Level FlightAware ADS-B (KWWD)
Thu 10:47:37 PM 40.4395 -75.9024 305° West 373 429 17,800 1,976 Climbing FlightAware ADS-B (KWWD)
Thu 10:48:17 PM 40.4633 -75.9876 290° West 372 428 19,400 2,447 Climbing FlightAware ADS-B (KWWD)
Thu 10:48:53 PM 40.4792 -76.0677 285° West 378 435 20,900 2,333 Climbing FlightAware ADS-B (KWWD)
Thu 10:49:29 PM 40.4947 -76.1472 284° West 379 436 22,200 2,529 Climbing FlightAware ADS-B (KWWD)
Thu 10:50:35 PM 40.5232 -76.2952 284° West 389 448 25,200 2,000 Climbing FlightAware ADS-B (LFML / MRS)
Thu 10:51:29 PM 40.5471 -76.4209 284° West 392 451 26,200 1,333 Climbing FlightAware ADS-B (LFML / MRS)
Thu 10:52:59 PM 40.5871 -76.6326 284° West 402 463 28,400 1,629 Climbing FlightAware ADS-B (LFML / MRS)
Thu 10:54:00 PM 40.6124 -76.7669 284° West 395 455 30,300 1,768 Climbing FlightAware ADS-B (LFML / MRS)
Thu 10:54:51 PM 40.6347 -76.8868 284° West 391 450 31,700 1,244 Climbing FlightAware ADS-B (LFML / MRS)
Thu 10:55:22 PM 40.6497 -76.9678 284° West 385 443 32,000 50 Climbing FlightAware ADS-B (KWWD)
Thu 11:00:53 PM 40.7901 -77.7451 284° West 394 453 32,000  Level FlightAware ADS-B (KWWD)
Thu 11:01:43 PM 40.8078 -77.8536 284° West 399 459 32,000  Level Cleveland Center
Thu 11:02:44 PM 40.8336 -77.9961 284° West 401 461 32,000  Level Cleveland Center
Thu 11:03:45 PM 40.8592 -78.1389 283° West 401 461 32,000  Level Cleveland Center
Thu 11:04:46 PM 40.8828 -78.2761 283° West 400 460 32,000  Level Cleveland Center
Thu 11:05:47 PM 40.9072 -78.4200 283° West 401 461 32,000  Level Cleveland Center
Thu 11:06:48 PM 40.9306 -78.5619 282° West 400 460 32,000  Level Cleveland Center
Thu 11:07:49 PM 40.9550 -78.7039 283° West 399 459 32,000  Level Cleveland Center
Thu 11:08:50 PM 40.9797 -78.8494 283° West 407 468 32,000  Level Cleveland Center
Thu 11:09:52 PM 41.0072 -79.0194 282° West 399 459 32,000  Level Cleveland Center
Thu 11:10:53 PM 41.0306 -79.1619 282° West 399 459 32,000  Level Cleveland Center
Thu 11:11:54 PM 41.0544 -79.3058 282° West 400 460 32,000  Level Cleveland Center
Thu 11:12:55 PM 41.0764 -79.4461 282° West 396 456 32,000  Level Cleveland Center
Thu 11:13:56 PM 41.0986 -79.5872 282° West 394 453 32,000  Level Cleveland Center
Thu 11:14:56 PM 41.1214 -79.7272 282° West 393 452 32,000  Level Cleveland Center
Thu 11:15:58 PM 41.1464 -79.8856 282° West 391 450 32,000  Level Cleveland Center
Thu 11:16:58 PM 41.1647 -80.0042 282° West 382 440 32,000  Level Cleveland Center
Thu 11:17:59 PM 41.1856 -80.1411 281° West 378 435 32,000  Level Cleveland Center
Thu 11:19:00 PM 41.2058 -80.2756 281° West 375 432 32,000  Level Cleveland Center
Thu 11:20:01 PM 41.2297 -80.4300 282° West 377 434 32,000  Level Cleveland Center
Thu 11:21:02 PM 41.2500 -80.5675 281° West 376 433 32,000  Level Cleveland Center
Thu 11:22:03 PM 41.2717 -80.7078 282° West 382 440 32,000  Level Cleveland Center
Thu 11:23:04 PM 41.2919 -80.8486 281° West 384 442 32,000  Level Cleveland Center
Thu 11:24:05 PM 41.3128 -80.9883 281° West 381 438 32,000  Level Cleveland Center
Thu 11:25:06 PM 41.3328 -81.1292 281° West 383 441 32,000  Level Cleveland Center
Thu 11:26:07 PM 41.3531 -81.2672 281° West 379 436 32,000  Level Cleveland Center
Thu 11:27:08 PM 41.3725 -81.4078 280° West 383 441 32,000  Level Cleveland Center
Thu 11:28:09 PM 41.3911 -81.5422 280° West 383 441 32,000  Level Cleveland Center
Thu 11:29:10 PM 41.4094 -81.6814 280° West 376 433 32,000  Level Cleveland Center
Thu 11:30:11 PM 41.4333 -81.8406 281° West 378 435 32,000  Level Cleveland Center
Thu 11:31:12 PM 41.4525 -81.9789 281° West 379 436 32,000  Level Cleveland Center
Thu 11:32:13 PM 41.4722 -82.1172 281° West 378 435 32,000  Level Cleveland Center
Thu 11:33:13 PM 41.4917 -82.2561 281° West 377 434 32,000  Level Cleveland Center
Thu 11:34:14 PM 41.5097 -82.3961 280° West 379 436 32,000  Level Cleveland Center
Thu 11:35:15 PM 41.5281 -82.5336 280° West 377 434 32,000  Level Cleveland Center
Thu 11:36:16 PM 41.5461 -82.6719 280° West 375 432 32,000  Level Cleveland Center
Thu 11:37:17 PM 41.5650 -82.8108 280° West 376 433 32,000  Level Cleveland Center
Thu 11:38:18 PM 41.5828 -82.9506 280° West 379 436 32,000  Level Cleveland Center
Thu 11:39:18 PM 41.6003 -83.0928 279° West 384 442 32,000  Level Cleveland Center
Thu 11:40:19 PM 41.6189 -83.2339 280° West 387 445 32,000  Level Cleveland Center
Thu 11:41:20 PM 41.6367 -83.3775 279° West 390 449 32,000  Level Cleveland Center
Thu 11:42:21 PM 41.6547 -83.5217 280° West 392 451 32,000  Level Cleveland Center
Thu 11:43:22 PM 41.6722 -83.6669 279° West 394 453 32,000  Level Cleveland Center
Thu 11:44:22 PM 41.6897 -83.8133 279° West 396 456 32,000  Level Cleveland Center
Thu 11:45:23 PM 41.7067 -83.9586 279° West 396 456 32,000  Level Cleveland Center
Thu 11:46:24 PM 41.7233 -84.1044 279° West 397 457 32,000  Level Cleveland Center
Thu 11:47:25 PM 41.7411 -84.2508 279° West 398 458 32,000  Level Cleveland Center
Thu 11:48:25 PM 41.7567 -84.3956 278° West 402 463 32,000  Level Cleveland Center
Thu 11:49:26 PM 41.7739 -84.5417 279° West 400 460 32,000  Level Cleveland Center
Thu 11:50:36 PM 41.7925 -84.7192 278° West 402 463 32,000  Level Chicago Center
Thu 11:51:37 PM 41.8097 -84.8681 279° West 404 465 32,000  Level Chicago Center
Thu 11:52:38 PM 41.8256 -85.0147 278° West 403 464 32,000  Level Chicago Center
Thu 11:58:55 PM 41.9289 -86.0027 278° West 417 480 32,000  Level FlightAware ADS-B
Thu 11:59:56 PM 41.9441 -86.1559 278° West 420 483 32,000  Level FlightAware ADS-B
Fri 12:00:39 AM 41.9453 -86.1678 278° West 420 483 32,000  Level FlightAware ADS-B
Fri 12:01:11 AM 41.9453 -86.1678 278° West 421 484 32,000  Level FlightAware ADS-B
Fri 12:02:09 AM 41.9772 -86.4960 278° West 420 483 32,000  Level FlightAware ADS-B
Fri 12:02:48 AM 41.9865 -86.5924 277° West 419 482 32,000  Level FlightAware ADS-B
Fri 12:03:30 AM 41.9960 -86.6925 277° West 420 483 32,000  Level FlightAware ADS-B (CYQU)
Fri 12:04:15 AM 42.0088 -86.8313 277° West 423 487 32,000  Level FlightAware ADS-B
Fri 12:04:55 AM 42.0183 -86.9357 277° West 426 490 32,000  Level FlightAware ADS-B
Fri 12:05:34 AM 42.0276 -87.0379 277° West 430 495 32,000  Level FlightAware ADS-B
Fri 12:06:16 AM 42.0378 -87.1500 277° West 433 498 32,000  Level FlightAware ADS-B
Fri 12:06:56 AM 42.0476 -87.2590 277° West 435 501 32,000 -82 Level FlightAware ADS-B (CYQU)
Fri 12:07:29 AM 42.0554 -87.3467 277° West 433 498 31,900 -1,280 Descending FlightAware ADS-B (CYQU)
Fri 12:08:11 AM 42.0650 -87.4528 277° West 412 474 30,400 -3,500 Descending FlightAware ADS-B (CYQU)
Fri 12:08:41 AM 42.0720 -87.5323 277° West 410 472 27,700 -5,077 Descending FlightAware ADS-B (CYQU)
Fri 12:09:16 AM 42.0794 -87.6188 277° West 395 455 24,900 -3,917 Descending FlightAware ADS-B
Fri 12:09:53 AM 42.0869 -87.7075 277° West 368 423 23,000 -2,923 Descending FlightAware ADS-B (CYQU)
Fri 12:10:34 AM 42.0916 -87.7631 277° West 361 415 21,100 -2,919 Descending FlightAware ADS-B
Fri 12:11:07 AM 42.1006 -87.8715 276° West 346 398 19,400 -3,040 Descending FlightAware ADS-B (CYQU)
Fri 12:11:49 AM 42.1054 -87.9303 276° West 341 392 17,300 -2,757 Descending FlightAware ADS-B (CYQU)
Fri 12:12:21 AM 42.1132 -88.0276 276° West 336 387 16,000 -1,452 Descending FlightAware ADS-B (CYQU)
Fri 12:12:51 AM 42.1183 -88.0914 276° West 337 388 15,800 -247 Descending FlightAware ADS-B (CYQU)
Fri 12:13:34 AM 42.1254 -88.1779 276° West 339 390 15,700 -1,151 Descending FlightAware ADS-B (CYQU)
Fri 12:14:04 AM 42.1307 -88.2426 276° West 325 374 14,400 -3,630 Descending FlightAware ADS-B (CYQU)
Fri 12:14:55 AM 42.1394 -88.3480 276° West 337 388 10,800 -3,143 Descending FlightAware ADS-B
Fri 12:15:28 AM 42.1442 -88.4107 276° West 330 380 10,000 -1,080 Descending FlightAware ADS-B
Fri 12:15:45 AM 42.1474 -88.4500 276° West 316 364 9,900 -333 Descending FlightAware ADS-B
Fri 12:16:04 AM 42.1503 -88.4866 276° West 302 348 9,800 -167 Descending FlightAware ADS-B
Fri 12:16:21 AM 42.1512 -88.4980 276° West 277 319 9,800 -150 Level FlightAware ADS-B
Fri 12:16:44 AM 42.1547 -88.5499 275° West 255 293 9,700 -154 Descending FlightAware ADS-B
Fri 12:17:00 AM 42.1549 -88.5782 271° West 248 285 9,700  Level FlightAware ADS-B
Fri 12:17:15 AM 42.1545 -88.5890 267° West 246 283 9,700  Level FlightAware ADS-B
Fri 12:17:45 AM 42.1500 -88.6493 264° West 247 284 9,700 -321 Level FlightAware ADS-B
Fri 12:18:11 AM 42.1500 -88.6493 264° West 242 278 9,400 -1,636 Descending FlightAware ADS-B
Fri 12:18:29 AM 42.1500 -88.6493 264° West 240 276 8,500 -2,316 Descending FlightAware ADS-B
Fri 12:19:08 AM 42.1402 -88.7737 264° West 235 270 7,200 -2,276 Descending FlightAware ADS-B
Fri 12:19:27 AM 42.1381 -88.8019 264° West 235 270 6,300 -2,000 Descending FlightAware ADS-B
Fri 12:20:41 AM 42.1333 -88.9000 264° West 233 268 4,100 -1,603 Descending Chicago TRACON
Fri 12:21:53 AM 42.0833 -89.0000 236° Southwest 225 259 2,400 -876 Descending Chicago TRACON
Fri 12:22:58 AM 42.0811 -89.0497 267° West 213 245 2,100 -267 Descending Chicago Center
Fri 12:24:53 AM 42.1500 -89.1000 332° Northwest 125 144 1,600 -261 Descending Chicago TRACON

Login

Don't have an account? Register now (free) for customized features, flight alerts, and more!